Texas General Land Office
 Texas General Land Office
 George P. Bush, Commissioner

 Oil Spill Prevention
 & Response

Texas Automated Buoy System
Real Time Ocean Observations
Supporting Oil Spill Prevention and
Response since 1995
Geochemical and Environmental Research Group

TABS Buoy B -- Texas Automated Buoy System

TABS Buoy B Conditions at 01/22/2019 14:30 UTC (01/22/2019 08:30 CST)
28° 58.9386'N   94° 53.9436'W
AA3900 DCS - sensor depth 2m
Anemometer height: 4m
Water Depth: 63 feet (19 meters)
Speed: 5.68 cm/s (0.11 kts) Direction: 216 °T (SW) Water Temp: 15°C (59 °F)
System Voltage: 11.6 V Signal Strength: -2.0 dB Ping Count: 134
Wind: 5.9 m/s (11.4 kts)
          From 166°T (SSE)
Air Temp: 10 °C (50 °F)
Relative Humidity:  79 %
Pressure: 1014.6 mb (29.96 inHg)

  


IMPORTANT: Notice to Mariners


Today's Velocity Data (download)

   Date   |  Time  |   East |   North|   Speed|  Dir | WaterT |
          |  (UTC) |  (cm/s)|  (cm/s)|  (cm/s)| (°T) |  (°C)  |
==========+========+========+========+========+======+========+
01/22/2019 00:00:00    11.47     4.52    12.33   68.5   14.8
01/22/2019 00:30:00    14.28     3.50    14.70   76.2   14.8
01/22/2019 01:00:00    10.89     2.64    11.21   76.4   14.8
01/22/2019 01:30:00    13.54     4.41    14.24   72.0   14.8
01/22/2019 02:00:00    12.89     3.47    13.35   74.9   14.8
01/22/2019 02:30:00     9.36     4.67    10.46   63.5   14.8
01/22/2019 03:00:00     7.69     5.64     9.54   53.7   14.8
01/22/2019 03:30:00    10.09     8.77    13.37   49.0   14.8
01/22/2019 04:00:00     9.75     9.49    13.61   45.8   14.8
01/22/2019 04:30:00     7.08     9.55    11.89   36.6   14.8
01/22/2019 05:00:00     6.50     8.91    11.03   36.1   14.8
01/22/2019 05:30:00     4.43    12.31    13.08   19.8   14.8
01/22/2019 06:00:00     7.29    12.67    14.62   29.9   14.8
01/22/2019 06:30:00     7.85    13.40    15.53   30.4   14.8
01/22/2019 07:00:00     7.61    15.01    16.83   26.9   14.8
01/22/2019 07:30:00     6.28    12.84    14.29   26.1   14.8
01/22/2019 08:00:00     6.44    11.92    13.55   28.4   14.8
01/22/2019 08:30:00     7.26     6.91    10.02   46.4   14.7
01/22/2019 09:00:00     4.43     5.30     6.91   39.9   14.7
01/22/2019 09:30:00     4.18     6.36     7.61   33.3   14.7
01/22/2019 10:00:00     3.42     3.24     4.71   46.5   14.7
01/22/2019 10:30:00     2.61    -0.83     2.74  107.6   14.7
01/22/2019 11:00:00     3.18    -0.56     3.23  100.0   14.8
01/22/2019 11:30:00     0.29     2.27     2.29    7.3   14.8
01/22/2019 12:00:00    -0.57    -1.46     1.57  201.3   14.8
01/22/2019 12:30:00     2.57     0.27     2.58   84.0   14.8
01/22/2019 13:00:00     5.23    -2.39     5.75  114.6   14.8
01/22/2019 13:30:00    -0.47    -4.97     4.99  185.4   14.8
01/22/2019 14:00:00    -3.58    -5.05     6.19  215.3   14.8
01/22/2019 14:30:00    -3.32    -4.61     5.68  215.8   14.8



       
 

Today's Temperature - Salinity Data     (Download)


   Date   |  Time  |   Temp |   Cond |Salinity| Density|SoundVel|
          |  (UTC) |   (°C) | (ms/cm)|        | kg/m^3 |  (m/s) |
==========+========+========+========+========+========+========+
01/22/2019 00:00:00    14.81    34.30    27.40     0.00     0.00
01/22/2019 00:30:00    14.82    34.32    27.41     0.00     0.00
01/22/2019 01:00:00    14.83    34.38    27.45     0.00     0.00
01/22/2019 01:30:00    14.83    34.39    27.47     0.00     0.00
01/22/2019 02:00:00    14.82    34.45    27.53     0.00     0.00
01/22/2019 02:30:00    14.81    34.53    27.60     0.00     0.00
01/22/2019 03:00:00    14.81    34.58    27.65     0.00     0.00
01/22/2019 03:30:00    14.81    34.57    27.64     0.00     0.00
01/22/2019 04:00:00    14.81    34.63    27.69     0.00     0.00
01/22/2019 04:30:00    14.81    34.63    27.69     0.00     0.00
01/22/2019 05:00:00    14.81    34.64    27.70     0.00     0.00
01/22/2019 05:30:00    14.80    34.65    27.72     0.00     0.00
01/22/2019 06:00:00    14.79    34.62    27.70     0.00     0.00
01/22/2019 06:30:00    14.78    34.62    27.70     0.00     0.00
01/22/2019 07:00:00    14.78    34.62    27.71     0.00     0.00
01/22/2019 07:30:00    14.78    34.60    27.69     0.00     0.00
01/22/2019 08:00:00    14.76    34.59    27.69     0.00     0.00
01/22/2019 08:30:00    14.76    34.61    27.71     0.00     0.00
01/22/2019 09:00:00    14.76    34.61    27.71     0.00     0.00
01/22/2019 09:30:00    14.76    34.61    27.71     0.00     0.00
01/22/2019 10:00:00    14.76    34.65    27.74     0.00     0.00
01/22/2019 10:30:00    14.76    34.69    27.78     0.00     0.00
01/22/2019 11:00:00    14.77    34.75    27.83     0.00     0.00
01/22/2019 11:30:00    14.77    34.81    27.88     0.00     0.00
01/22/2019 12:00:00    14.77    34.82    27.89     0.00     0.00
01/22/2019 12:30:00    14.77    34.82    27.89     0.00     0.00
01/22/2019 13:00:00    14.78    34.89    27.94     0.00     0.00
01/22/2019 13:30:00    14.78    34.89    27.94     0.00     0.00
01/22/2019 14:00:00    14.80    34.98    28.01     0.00     0.00
01/22/2019 14:30:00    14.81    34.97    28.00     0.00     0.00